x

Olcott Harbor, Ny (olcn6) Weather Station

11:50pm - Tue 27th Jan 2015 All times are CST. -6 hours from GMT.

  • Wind
    10mph, 14mph gusts
  • Air Temp 23°f
  • Sea Pressure 1021.3mb
  • Olcott Harbor, Ny
  • Olcott Harbor, Ny

More Historic Weather Station data

Upgrade to MSW Pro to gain access to the past 30 days of data for over 8000 Wavebouys and Weather Stations around the globe.

Join Pro

Comparision Forecast

View Surf forecast
   
Tue 01/27 11:50pm 10 14 mph 1021.3mb 23f
11:40pm 8 14 mph 1021.3mb 23f
11:30pm 10 13 mph 1021.3mb 23f
11:20pm 10 14 mph 1021.3mb 23f
11:10pm 10 14 mph 1021.7mb 23f
11:00pm 9 13 mph 1021.3mb 23f
10:50pm 8 13 mph 1021.3mb 23f
10:40pm 9 15 mph 1021.3mb 23f
10:30pm 10 16 mph 1021.3mb 23f
10:20pm 13 18 mph 1021.3mb 23f
10:10pm 15 18 mph 1021.3mb 23f
9:00pm 17 24 mph 1020.7mb 24f
8:50pm 20 24 mph 1020.7mb 24f
8:40pm 21 24 mph 1020.7mb 24f
8:30pm 18 24 mph 1020.7mb 24f
8:20pm 20 24 mph 1020.7mb 24f
8:10pm 20 24 mph 1020.7mb 24f
8:00pm 20 24 mph 1020.7mb 24f
7:50pm 20 25 mph 1020.7mb 24f
7:40pm 18 23 mph 1020.7mb 24f
7:30pm 20 24 mph 1020.7mb 24f
7:20pm 17 22 mph 1020.7mb 24f
7:10pm 17 22 mph 1021mb 24f
7:00pm 17 22 mph 1020.7mb 24f
6:50pm 17 21 mph 1021mb 24f
6:40pm 18 21 mph 1021mb 24f
6:30pm 18 22 mph 1020.7mb 24f
6:20pm 16 21 mph 1020.7mb 24f
6:10pm 15 21 mph 1020.7mb 25f
2:00pm 9 13 mph 1019.3mb 19f
1:00pm 10 13 mph 1019mb 19f
12:50pm 9 15 mph 1019mb 18f
12:40pm 13 18 mph 1019mb 18f
12:30pm 11 16 mph 1019mb 18f
12:20pm 11 20 mph 1019mb 18f
12:10pm 11 17 mph 1018.6mb 18f
12:00pm 11 18 mph 1019mb 18f
11:50am 11 16 mph 1018.6mb 18f
11:40am 11 17 mph 1019.3mb 18f
11:30am 9 17 mph 1019.3mb 18f
11:20am 11 17 mph 1019.3mb 17f
11:10am 14 15 mph 1019mb 18f
10:00am 16 23 mph 1019.6mb 18f
9:50am 18 24 mph 1019.6mb 17f
9:40am 17 22 mph 1019.3mb 18f
9:30am 16 20 mph 1019.3mb 18f
9:20am 15 21 mph 1019.3mb 18f
9:10am 16 23 mph 1019.3mb 18f
8:00am 16 21 mph 1018.6mb 18f
7:50am 15 21 mph 1018.6mb 18f
7:40am 16 20 mph 1018.6mb 18f
7:30am 16 21 mph 1018.3mb 18f
7:20am 16 21 mph 1018.3mb 18f
7:10am 17 23 mph 1018.3mb 18f
6:00am 21 28 mph 1017.6mb 17f
5:50am 20 26 mph 1017.9mb 18f
5:40am 21 26 mph 1017.6mb 18f
5:30am 22 26 mph 1017.6mb 17f
5:20am 22 28 mph 1017.6mb 17f
5:10am 23 29 mph 1017.3mb 17f
5:00am 22 25 mph 1017.3mb 18f
4:50am 23 26 mph 1017.3mb 18f
4:40am 21 25 mph 1017.3mb 18f
4:30am 22 24 mph 1016.9mb 18f
4:20am 20 23 mph 1016.9mb 19f
4:10am 18 25 mph 1016.9mb 19f
3:00am 22 25 mph 1016.3mb 19f
2:50am 20 25 mph 1016.3mb 19f
2:40am 20 26 mph 1016.3mb 19f
2:30am 21 24 mph 1015.9mb 19f
2:20am 18 24 mph 1015.9mb 19f
2:10am 21 26 mph 1015.9mb 19f
12:00am 24 30 mph 1015.2mb 20f
Mon 01/26 11:50pm 26 31 mph 1015.6mb 20f
11:40pm 24 30 mph 1015.6mb 20f
11:30pm 24 29 mph 1015.6mb 20f
11:20pm 24 30 mph 1015.9mb 20f
11:10pm 25 29 mph 1015.9mb 20f
11:00pm 23 28 mph 1015.9mb 20f
10:50pm 22 31 mph 1015.6mb 20f
10:40pm 25 30 mph 1015.9mb 21f
10:30pm 25 31 mph 1015.6mb 20f
10:20pm 25 33 mph 1015.9mb 20f
10:10pm 25 30 mph 1016.3mb 20f
8:00pm 26 32 mph 1015.9mb 20f
7:50pm 29 32 mph 1016.3mb 20f
7:40pm 26 33 mph 1016.3mb 19f
7:30pm 28 34 mph 1016.3mb 20f
7:20pm 28 33 mph 1016.3mb 20f
7:10pm 29 33 mph 1016.3mb 20f
7:00pm 28 31 mph 1016.6mb 20f
6:50pm 26 32 mph 1016.6mb 20f
6:40pm 26 32 mph 1016.6mb 20f
6:30pm 29 33 mph 1016.6mb 20f
6:20pm 26 34 mph 1016.3mb 20f
6:10pm 26 36 mph 1016.3mb 20f
4:00pm 30 38 mph 1014.6mb 20f
3:50pm 31 38 mph 1014.9mb 20f
3:40pm 33 41 mph 1014.6mb 20f
3:30pm 33 37 mph 1014.9mb 20f
3:20pm 31 38 mph 1014.9mb 21f
3:10pm 30 37 mph 1014.6mb 20f
12:00pm 28 33 mph 1014.6mb 21f
11:50am 22 28 mph 1014.9mb 20f
11:40am 17 23 mph 1015.2mb 20f
11:30am 16 22 mph 1015.6mb 20f
11:20am 16 20 mph 1015.6mb 20f
11:10am 16 23 mph 1015.9mb 20f
10:00am 15 18 mph 1016.9mb 20f
9:50am 14 22 mph 1016.9mb 19f
9:40am 15 23 mph 1017.3mb 19f
9:30am 16 23 mph 1016.9mb 19f
9:20am 16 21 mph 1016.9mb 19f
9:10am 16 21 mph 1017.3mb 19f
9:00am 15 23 mph 1016.9mb 18f
8:50am 15 20 mph 1016.9mb 18f
8:30am 13 18 mph 1017.3mb 17f
8:20am 13 17 mph 1017.3mb 17f
8:10am 15 21 mph 1017.3mb 17f
6:00am 11 17 mph 1016.9mb 15f
5:50am 11 21 mph 1016.9mb 15f
5:40am 11 18 mph 1016.9mb 16f
5:30am 14 18 mph 1016.9mb 15f
5:20am 11 17 mph 1016.9mb 16f
5:10am 14 18 mph 1016.9mb 16f
5:00am 13 17 mph 1016.9mb 16f
4:50am 14 20 mph 1016.9mb 15f
4:40am 14 20 mph 1016.6mb 15f
4:30am 15 21 mph 1016.6mb 16f
4:20am 15 21 mph 1016.9mb 16f
4:10am 13 18 mph 1016.9mb 16f
Sun 01/25 11:00pm 6 10 mph 1019mb 17f
10:50pm 6 9 mph 1019mb 17f
5:00pm 6 8 mph 1017.9mb 19f
4:50pm 5 7 mph 1017.6mb 19f
4:00pm 6 8 mph 1016.9mb 19f
3:50pm 2 7 mph 1016.9mb 19f
3:40pm 5 7 mph 1016.9mb 19f
3:30pm 3 7 mph 1016.9mb 19f
3:20pm 1 7 mph 1016.9mb 19f
3:10pm  -  6 mph 1016.6mb 19f
3:00pm  -  6 mph 1016.3mb 19f
2:50pm 6 8 mph 1016.3mb 19f
2:40pm 3 8 mph 1016.3mb 19f
2:30pm 5 8 mph 1016.3mb 20f
2:20pm 5 8 mph 1015.9mb 20f
2:10pm 3 10 mph 1015.9mb 19f
2:00pm 7 10 mph 1015.9mb 20f
1:50pm 5 7 mph 1015.9mb 20f
1:40pm 2 9 mph 1015.9mb 20f
1:30pm 6 8 mph 1015.9mb 20f
1:20pm 5 8 mph 1015.9mb 20f
1:10pm 2 8 mph 1015.9mb 19f
1:00pm 6 9 mph 1015.9mb 19f
12:50pm 5 8 mph 1015.6mb 19f
12:40pm 6 9 mph 1015.6mb 19f
12:30pm 6 9 mph 1015.6mb 19f
12:20pm 5 7 mph 1015.6mb 19f
12:10pm 5 8 mph 1015.6mb 19f
10:00am 9 14 mph 1015.9mb 16f
9:50am 8 15 mph 1015.9mb 16f
9:40am 11 16 mph 1015.6mb 16f
9:30am 11 20 mph 1015.6mb 16f
9:20am 11 17 mph 1015.2mb 15f
9:10am 15 22 mph 1015.2mb 15f
7:00am 18 25 mph 1012.9mb 16f
6:50am 20 25 mph 1012.5mb 17f
6:40am 22 24 mph 1012.5mb 17f
6:30am 20 24 mph 1012.5mb 18f
6:20am 18 25 mph 1012.5mb 18f
6:10am 23 26 mph 1012.2mb 19f
5:50am 18 24 mph 1011.5mb 20f
5:40am 22 28 mph 1011.5mb 20f
5:30am 22 26 mph 1010.8mb 20f
5:20am 23 28 mph 1010.8mb 20f
5:10am 23 28 mph 1010.8mb 20f
5:00am 24 30 mph 1010.2mb 20f
4:50am 25 31 mph 1010.2mb 21f
4:40am 25 30 mph 1009.5mb 21f
4:30am 23 30 mph 1009.1mb 22f
4:20am 26 31 mph 1009.1mb 22f
4:10am 28 33 mph 1008.5mb 22f
3:00am 29 36 mph 1006.4mb 26f
2:50am 26 32 mph 1006.1mb 27f
2:40am 28 33 mph 1005.8mb 27f
2:30am 28 32 mph 1005.8mb 27f
2:20am 29 32 mph 1005.4mb 28f
2:10am 26 32 mph 1005.4mb 28f
Sat 01/24 11:00pm 29 37 mph 1000.3mb 35f
10:50pm 33 38 mph 1000mb 35f
10:40pm 25 29 mph 1000.3mb 34f
10:30pm 21 25 mph 1000.3mb 34f
10:20pm 21 26 mph 1000.3mb 34f
10:10pm 20 25 mph 1000mb 34f
10:00pm 20 25 mph 1000mb 34f
9:50pm 14 21 mph 1000.3mb 33f
9:40pm 13 18 mph 1000.3mb 33f
9:30pm 13 17 mph 1000.3mb 33f
9:20pm 14 20 mph 1000.3mb 33f
9:10pm 14 20 mph 1000.3mb 32f
9:00pm 15 22 mph 1000.3mb 32f
8:50pm 14 20 mph 1000.3mb 32f
8:40pm 14 20 mph 1000.3mb 32f
8:30pm 10 15 mph 1000.3mb 31f
8:20pm 11 17 mph 1000.3mb 31f
8:10pm 13 18 mph 1000.3mb 31f
8:00pm 13 16 mph 1000mb 31f
7:50pm 9 17 mph 1000mb 31f
7:40pm 10 17 mph 1000mb 31f
7:30pm 11 18 mph 1000mb 31f
7:10pm 10 14 mph 1000.3mb 31f
7:00pm 11 15 mph 1000.3mb 31f
6:50pm 9 15 mph 1000.3mb 31f
6:40pm 9 13 mph 1000.3mb 31f
6:30pm 10 16 mph 1000.3mb 31f
6:20pm 11 15 mph 1000.3mb 31f
6:10pm 10 15 mph 1000.3mb 31f
6:00pm 10 16 mph 1000.3mb 31f
5:50pm 10 16 mph 1000.3mb 31f
5:40pm 11 15 mph 1000.3mb 31f
5:30pm 11 15 mph 1000.3mb 31f
5:20pm 9 17 mph 1000.3mb 31f
5:10pm 10 16 mph 1000mb 30f
5:00pm 10 17 mph 1000mb 30f
4:50pm 11 16 mph 999.7mb 30f
4:40pm 11 16 mph 1000mb 30f
4:30pm 8 16 mph 999.7mb 30f
4:20pm 10 14 mph 999.7mb 30f
4:10pm 9 16 mph 999.7mb 30f
4:00pm 10 16 mph 999.7mb 30f
3:50pm 10 15 mph 999.3mb 30f
3:40pm 10 15 mph 999.3mb 30f
3:30pm 13 18 mph 999.3mb 30f
3:20pm 11 21 mph 999.3mb 30f
3:10pm 14 18 mph 999mb 30f
3:00pm 13 18 mph 999.3mb 30f
2:50pm 9 17 mph 999.3mb 30f
2:40pm 10 15 mph 999.3mb 30f
2:30pm 11 15 mph 999.3mb 30f
2:20pm 11 18 mph 999.3mb 30f
2:10pm 10 15 mph 999.3mb 30f
1:50pm 11 17 mph 999.3mb 30f
1:40pm 11 16 mph 999.3mb 30f
1:30pm 10 17 mph 999.3mb 30f
1:20pm 11 17 mph 999.7mb 30f
1:10pm 14 17 mph 999.7mb 30f
1:00pm 14 18 mph 999.7mb 30f
12:50pm 14 17 mph 1000mb 30f
12:40pm 11 18 mph 1000mb 30f
12:30pm 13 18 mph 1000mb 29f
12:20pm 10 18 mph 1000.3mb 29f
12:10pm 11 17 mph 1000.3mb 29f
12:00pm 10 20 mph 1000.7mb 29f
11:50am 10 15 mph 1001mb 29f
11:40am 11 16 mph 1001mb 29f
11:30am 14 18 mph 1001.4mb 29f
11:20am 14 18 mph 1001.7mb 29f
11:10am 11 15 mph 1001.7mb 29f
10:00am 8 13 mph 1003.4mb 27f
9:50am 6 13 mph 1003.4mb 27f
9:40am 8 13 mph 1003.7mb 27f
9:30am 8 11 mph 1003.7mb 26f
9:20am 8 13 mph 1003.7mb 26f
9:10am 7 11 mph 1003.7mb 26f
9:00am 7 13 mph 1003.7mb 25f
8:50am 8 13 mph 1003.7mb 25f
8:00am 9 15 mph 1004.7mb 25f
7:50am 11 14 mph 1004.7mb 25f
7:40am 10 11 mph 1004.7mb 25f
7:30am 8 13 mph 1004.7mb 25f
7:20am 8 14 mph 1004.7mb 25f
7:10am 10 14 mph 1004.7mb 25f
7:00am 9 13 mph 1005.1mb 26f
6:50am 10 13 mph 1005.1mb 26f